Time;durP1;ratioP1;P1;durP2;ratioP2;P2;SDS_P1;SDS_P2;PMS_P1;PMS_P2;Temp;Humidity;BMP_temperature;BMP_pressure;BME280_temperature;BME280_humidity;BME280_pressure;Samples;Min_cycle;Max_cycle;Signal;HPM_P1;HPM_P2
2021/06/06 00:01:40;;;;;;;6.88;4.88;;;;;;;20.09;100.00;101200.81;4918975;29;20462;-75
2021/06/06 00:04:25;;;;;;;6.15;4.65;;;;;;;19.99;100.00;101194.19;4905373;29;20111;-76
2021/06/06 00:07:13;;;;;;;6.60;4.20;;;;;;;19.94;100.00;101179.41;4918788;29;20115;-75
2021/06/06 00:09:58;;;;;;;4.85;4.35;;;;;;;20.05;100.00;101174.44;4919343;29;20074;-76
2021/06/06 00:12:44;;;;;;;6.95;4.53;;;;;;;20.27;100.00;101170.66;4917516;29;20040;-75
2021/06/06 00:15:30;;;;;;;7.68;4.63;;;;;;;20.11;100.00;101171.47;4918980;29;20032;-75
2021/06/06 00:18:16;;;;;;;10.02;4.60;;;;;;;20.16;100.00;101172.09;4904749;29;20355;-75
2021/06/06 00:21:03;;;;;;;5.22;4.38;;;;;;;20.11;100.00;101167.03;4919185;29;20078;-75
2021/06/06 00:23:50;;;;;;;8.25;4.32;;;;;;;20.17;100.00;101164.06;4918541;29;20043;-75
2021/06/06 00:26:35;;;;;;;5.18;4.40;;;;;;;20.23;100.00;101163.75;4918639;29;20062;-75
2021/06/06 00:29:23;;;;;;;6.85;4.10;;;;;;;20.21;100.00;101162.97;4918869;29;20028;-75
2021/06/06 00:32:09;;;;;;;4.57;4.18;;;;;;;20.04;100.00;101160.25;4918134;29;20410;-75
2021/06/06 00:34:54;;;;;;;4.90;3.90;;;;;;;20.16;100.00;101157.03;4918495;29;20023;-75
2021/06/06 00:37:41;;;;;;;5.25;4.20;;;;;;;20.08;100.00;101160.94;4918274;29;20413;-76
2021/06/06 00:40:29;;;;;;;7.43;4.00;;;;;;;20.15;100.00;101160.63;4918665;29;20032;-76
2021/06/06 00:43:22;;;;;;;7.32;3.95;;;;;;;20.31;100.00;101160.72;4904156;29;20070;-76
2021/06/06 00:46:08;;;;;;;4.88;4.20;;;;;;;20.20;100.00;101147.94;4918138;29;20024;-76
2021/06/06 00:48:55;;;;;;;10.88;4.30;;;;;;;20.06;100.00;101153.06;4917950;29;20377;-75
2021/06/06 00:51:53;;;;;;;10.77;4.60;;;;;;;20.14;100.00;101144.72;4918367;29;20040;-75
2021/06/06 00:54:45;;;;;;;6.88;4.18;;;;;;;20.10;100.00;101145.81;4904432;29;20091;-75
2021/06/06 00:57:33;;;;;;;5.47;4.18;;;;;;;20.22;100.00;101148.75;4919131;29;20431;-76
2021/06/06 01:00:22;;;;;;;6.18;4.85;;;;;;;20.17;100.00;101141.94;4918014;29;20035;-76
2021/06/06 01:03:09;;;;;;;7.22;4.70;;;;;;;20.18;100.00;101147.19;4918286;29;20073;-76
2021/06/06 01:06:03;;;;;;;5.80;4.60;;;;;;;20.23;100.00;101142.47;4918396;29;20035;-76
2021/06/06 01:08:49;;;;;;;10.23;5.00;;;;;;;19.85;100.00;101143.47;4918791;29;20031;-75
2021/06/06 01:11:41;;;;;;;12.45;4.35;;;;;;;19.95;100.00;101146.53;4918296;29;20036;-76
2021/06/06 01:14:37;;;;;;;6.93;4.70;;;;;;;20.10;100.00;101140.50;4917817;29;20028;-75
2021/06/06 01:17:33;;;;;;;5.60;4.10;;;;;;;19.73;100.00;101146.72;4917937;29;20036;-76
2021/06/06 01:20:39;;;;;;;5.68;4.25;;;;;;;19.81;100.00;101144.53;4918270;29;20056;-76
2021/06/06 01:23:37;;;;;;;6.68;4.97;;;;;;;19.85;100.00;101138.16;4904281;29;20658;-76
2021/06/06 01:26:33;;;;;;;5.38;4.47;;;;;;;19.66;100.00;101144.44;4905888;29;20028;-75
2021/06/06 01:29:21;;;;;;;6.43;4.88;;;;;;;19.84;100.00;101146.22;4918120;29;20028;-75
2021/06/06 01:32:34;;;;;;;8.35;5.05;;;;;;;19.54;100.00;101129.06;4917568;29;20043;-76
2021/06/06 01:35:47;;;;;;;6.65;4.40;;;;;;;19.70;100.00;101130.94;4917796;29;20024;-75
2021/06/06 01:38:38;;;;;;;6.72;4.75;;;;;;;19.69;100.00;101129.19;4905466;29;20047;-76
2021/06/06 01:41:34;;;;;;;5.72;4.55;;;;;;;19.76;100.00;101122.63;4918258;29;20071;-76
2021/06/06 01:44:25;;;;;;;5.07;4.40;;;;;;;19.65;100.00;101122.28;4918292;29;20063;-76
2021/06/06 01:47:24;;;;;;;9.25;4.45;;;;;;;19.60;100.00;101119.00;4904247;29;20024;-75
2021/06/06 01:50:18;;;;;;;5.88;4.35;;;;;;;19.50;100.00;101117.72;4918308;29;20068;-75
2021/06/06 01:53:06;;;;;;;7.05;4.45;;;;;;;19.38;100.00;101105.03;4921533;29;20040;-75
2021/06/06 01:55:56;;;;;;;5.50;4.25;;;;;;;19.44;100.00;101104.72;4921295;29;20020;-75
2021/06/06 01:58:42;;;;;;;5.20;4.32;;;;;;;19.12;100.00;101106.22;4921555;29;20119;-75
2021/06/06 02:01:28;;;;;;;8.65;4.40;;;;;;;19.29;100.00;101102.78;4921151;29;20024;-76
2021/06/06 02:04:14;;;;;;;6.07;4.45;;;;;;;19.46;100.00;101105.53;4907340;29;20031;-75
2021/06/06 02:07:18;;;;;;;4.72;3.90;;;;;;;19.46;100.00;101113.50;4921039;29;20469;-75
2021/06/06 02:10:23;;;;;;;7.40;4.20;;;;;;;19.34;100.00;101115.84;4921632;29;20046;-75
2021/06/06 02:13:32;;;;;;;8.93;4.60;;;;;;;19.25;100.00;101117.13;4920797;29;20024;-75
2021/06/06 02:16:25;;;;;;;5.32;4.10;;;;;;;19.07;100.00;101117.97;4920945;29;20043;-75
2021/06/06 02:19:10;;;;;;;6.38;4.20;;;;;;;19.19;100.00;101117.41;4920475;29;20035;-75
2021/06/06 02:22:01;;;;;;;7.32;4.70;;;;;;;18.89;100.00;101117.00;4921356;29;20040;-75
2021/06/06 02:24:48;;;;;;;6.68;4.57;;;;;;;18.82;100.00;101106.75;4920711;29;20092;-75
2021/06/06 02:27:42;;;;;;;6.13;4.20;;;;;;;18.75;100.00;101111.47;4920250;29;20425;-75
2021/06/06 02:30:51;;;;;;;6.30;4.40;;;;;;;18.63;100.00;101113.78;4920497;29;20024;-75
2021/06/06 02:34:04;;;;;;;6.80;4.47;;;;;;;18.75;100.00;101108.81;4906875;29;20052;-75
2021/06/06 02:37:07;;;;;;;5.82;4.30;;;;;;;18.92;100.00;101108.03;4920368;29;20119;-75
2021/06/06 02:39:58;;;;;;;8.20;4.57;;;;;;;18.90;100.00;101094.81;4920895;29;20069;-75
2021/06/06 02:42:45;;;;;;;4.82;4.35;;;;;;;19.21;100.00;101105.78;4919981;29;20056;-76
2021/06/06 02:45:33;;;;;;;5.47;4.25;;;;;;;19.06;100.00;101095.00;4906976;29;20059;-76
2021/06/06 02:48:27;;;;;;;6.15;4.70;;;;;;;19.19;100.00;101096.16;4920450;29;20504;-76
2021/06/06 02:51:19;;;;;;;7.30;4.28;;;;;;;19.12;100.00;101092.03;4906813;29;20046;-76
2021/06/06 02:54:19;;;;;;;6.97;4.68;;;;;;;18.83;100.00;101084.56;4919594;29;20123;-76
2021/06/06 02:57:08;;;;;;;4.80;4.20;;;;;;;18.95;100.00;101078.69;4906463;29;20032;-76
2021/06/06 03:00:05;;;;;;;5.97;4.15;;;;;;;18.86;100.00;101087.94;4920395;29;20458;-76
2021/06/06 03:02:58;;;;;;;10.15;4.63;;;;;;;18.87;100.00;101091.47;4906751;29;20035;-75
2021/06/06 03:05:45;;;;;;;6.10;4.38;;;;;;;18.81;100.00;101097.06;4922277;29;20135;-75
2021/06/06 03:08:31;;;;;;;8.70;4.40;;;;;;;18.15;100.00;101095.53;4936323;29;20013;-75
2021/06/06 03:11:19;;;;;;;5.18;4.05;;;;;;;18.55;100.00;101095.56;4941783;29;20099;-75
2021/06/06 03:14:08;;;;;;;7.53;4.47;;;;;;;19.01;100.00;101094.38;4928917;29;20024;-75
2021/06/06 03:17:05;;;;;;;8.25;4.45;;;;;;;18.77;100.00;101093.66;4926279;29;20032;-76
2021/06/06 03:19:54;;;;;;;6.45;4.45;;;;;;;18.42;100.00;101093.50;4920542;29;20509;-76
2021/06/06 03:22:43;;;;;;;4.22;3.80;;;;;;;18.76;100.00;101088.41;4927737;29;20135;-74
2021/06/06 03:25:50;;;;;;;7.70;4.00;;;;;;;18.68;100.00;101091.44;4929665;29;20024;-75
2021/06/06 03:28:40;;;;;;;6.38;4.00;;;;;;;18.83;100.00;101095.19;4930228;29;20331;-75
2021/06/06 03:31:34;;;;;;;8.88;4.35;;;;;;;18.81;100.00;101099.72;4919626;29;20099;-76
2021/06/06 03:34:20;;;;;;;6.10;3.63;;;;;;;18.85;100.00;101098.66;4906204;29;20369;-76
2021/06/06 03:37:06;;;;;;;5.63;4.00;;;;;;;18.82;100.00;101102.28;4919650;29;20426;-76
2021/06/06 03:39:55;;;;;;;7.38;3.83;;;;;;;19.04;100.00;101110.13;4905703;29;20103;-76
2021/06/06 03:42:40;;;;;;;6.38;4.38;;;;;;;19.22;100.00;101109.31;4918649;29;20048;-76
2021/06/06 03:45:26;;;;;;;6.78;4.45;;;;;;;18.88;100.00;101106.44;4919347;29;20455;-75
2021/06/06 03:48:12;;;;;;;7.38;4.13;;;;;;;18.99;100.00;101105.06;4919190;29;20028;-75
2021/06/06 03:50:58;;;;;;;5.70;4.13;;;;;;;19.27;100.00;101101.13;4919686;29;20349;-75
2021/06/06 03:53:45;;;;;;;6.47;4.15;;;;;;;19.08;100.00;101099.31;4919029;29;20028;-75
2021/06/06 03:56:31;;;;;;;5.80;4.40;;;;;;;18.83;100.00;101093.41;4919119;29;20036;-75
2021/06/06 03:59:17;;;;;;;6.47;4.32;;;;;;;19.38;100.00;101090.88;4918763;29;20038;-75
2021/06/06 04:02:04;;;;;;;5.07;3.90;;;;;;;19.48;100.00;101087.69;4918911;29;20088;-75
2021/06/06 04:04:50;;;;;;;6.95;4.32;;;;;;;19.41;100.00;101093.38;4918669;29;20032;-75
2021/06/06 04:07:36;;;;;;;5.30;4.40;;;;;;;19.47;100.00;101091.28;4919274;29;20524;-75
2021/06/06 04:10:22;;;;;;;9.43;4.40;;;;;;;19.29;100.00;101099.28;4919035;29;20042;-75
2021/06/06 04:13:09;;;;;;;7.22;4.40;;;;;;;19.07;100.00;101102.03;4904843;29;20067;-75
2021/06/06 04:15:55;;;;;;;7.20;4.40;;;;;;;19.28;100.00;101103.72;4918276;29;20122;-75
2021/06/06 04:18:41;;;;;;;4.82;4.32;;;;;;;19.54;100.00;101100.69;4917403;29;20175;-75
2021/06/06 04:21:29;;;;;;;7.32;4.47;;;;;;;19.43;100.00;101089.72;4917742;29;20055;-75
2021/06/06 04:24:15;;;;;;;7.25;4.32;;;;;;;19.41;100.00;101091.56;4917871;29;20453;-75
2021/06/06 04:27:01;;;;;;;7.78;4.38;;;;;;;19.40;100.00;101091.66;4919408;29;20028;-75
2021/06/06 04:29:47;;;;;;;5.10;4.30;;;;;;;19.66;100.00;101091.25;4918388;29;20042;-75
2021/06/06 04:32:33;;;;;;;5.07;4.18;;;;;;;19.46;100.00;101094.91;4918625;29;20091;-75
2021/06/06 04:35:19;;;;;;;8.45;4.30;;;;;;;19.22;100.00;101091.53;4918456;29;20357;-75
2021/06/06 04:38:08;;;;;;;7.82;4.43;;;;;;;19.44;100.00;101094.09;4918776;29;20025;-75
2021/06/06 04:40:56;;;;;;;6.30;4.65;;;;;;;19.61;100.00;101095.94;4904612;29;20110;-74
2021/06/06 04:43:42;;;;;;;5.30;4.45;;;;;;;19.65;100.00;101097.53;4918203;29;20398;-75
2021/06/06 04:46:27;;;;;;;6.13;4.47;;;;;;;19.02;100.00;101101.38;4918063;29;20111;-75
2021/06/06 04:49:13;;;;;;;7.32;4.10;;;;;;;19.47;100.00;101099.25;4918153;29;20096;-76
2021/06/06 04:51:59;;;;;;;8.57;4.28;;;;;;;19.68;100.00;101098.22;4904553;29;20039;-75
2021/06/06 04:54:45;;;;;;;4.78;4.32;;;;;;;19.57;100.00;101103.19;4904337;29;20021;-75
2021/06/06 04:57:30;;;;;;;12.43;4.55;;;;;;;19.52;100.00;101102.56;4918805;29;20358;-75
2021/06/06 05:00:20;;;;;;;4.63;4.18;;;;;;;19.60;100.00;101100.41;4918234;29;20042;-75
2021/06/06 05:03:07;;;;;;;6.97;4.40;;;;;;;19.71;100.00;101099.88;4918956;29;20509;-75
2021/06/06 05:05:53;;;;;;;7.18;4.65;;;;;;;20.03;100.00;101099.13;4904527;29;20059;-76
2021/06/06 05:08:39;;;;;;;5.00;4.15;;;;;;;20.35;100.00;101098.41;4904863;29;20039;-75
2021/06/06 05:11:26;;;;;;;6.13;4.80;;;;;;;20.42;100.00;101094.50;4904812;29;20029;-75
2021/06/06 05:14:12;;;;;;;5.13;4.22;;;;;;;20.21;100.00;101092.94;4904443;29;20036;-75
2021/06/06 05:16:58;;;;;;;4.97;4.47;;;;;;;20.24;100.00;101101.63;4918435;29;20476;-75
2021/06/06 05:19:44;;;;;;;4.72;4.13;;;;;;;19.67;100.00;101108.94;4904334;29;20028;-74
2021/06/06 05:22:30;;;;;;;6.07;4.55;;;;;;;20.57;100.00;101115.84;4918039;29;20040;-75
2021/06/06 05:25:16;;;;;;;6.50;4.90;;;;;;;20.76;100.00;101115.75;4905103;29;20020;-75
2021/06/06 05:28:04;;;;;;;9.80;4.80;;;;;;;20.79;100.00;101116.44;4908013;29;20032;-75
2021/06/06 05:30:50;;;;;;;8.20;4.72;;;;;;;20.83;100.00;101115.34;4921602;29;20103;-76
2021/06/06 05:33:36;;;;;;;4.95;4.40;;;;;;;21.24;100.00;101105.13;4921190;29;20024;-76
2021/06/06 05:36:22;;;;;;;6.30;4.45;;;;;;;21.25;100.00;101107.72;4907532;29;20424;-76
2021/06/06 05:39:08;;;;;;;9.65;5.28;;;;;;;21.91;100.00;101111.09;4907817;29;20118;-75
2021/06/06 05:41:54;;;;;;;7.43;4.47;;;;;;;22.12;100.00;101116.06;4921433;29;20070;-76
2021/06/06 05:44:40;;;;;;;13.07;6.63;;;;;;;21.88;100.00;101112.13;4921873;29;20028;-75
2021/06/06 05:47:26;;;;;;;8.20;4.10;;;;;;;21.61;100.00;101113.66;4921464;29;20039;-76
2021/06/06 05:50:14;;;;;;;8.32;4.63;;;;;;;21.78;100.00;101110.94;4921927;29;20349;-76
2021/06/06 05:52:59;;;;;;;6.28;4.07;;;;;;;22.49;100.00;101112.06;4921200;29;20032;-75
2021/06/06 05:55:45;;;;;;;7.78;4.50;;;;;;;21.87;100.00;101110.38;4920750;29;20028;-76
2021/06/06 05:58:32;;;;;;;7.90;4.55;;;;;;;22.38;100.00;101117.19;4908098;29;20335;-75
2021/06/06 06:01:18;;;;;;;6.60;4.68;;;;;;;22.96;100.00;101110.03;4907161;29;20099;-75
2021/06/06 06:04:04;;;;;;;10.10;5.10;;;;;;;22.80;100.00;101120.81;4920998;29;20441;-76
2021/06/06 06:06:50;;;;;;;6.00;4.60;;;;;;;23.07;100.00;101105.72;4920955;29;20115;-74
2021/06/06 06:09:36;;;;;;;6.07;4.45;;;;;;;23.00;100.00;101106.22;4921113;29;20028;-76
2021/06/06 06:12:21;;;;;;;9.00;4.97;;;;;;;23.25;100.00;101101.94;4920055;29;20366;-76
2021/06/06 06:15:08;;;;;;;6.40;4.75;;;;;;;23.81;100.00;101097.38;4919937;29;20028;-75
2021/06/06 06:17:53;;;;;;;7.75;4.90;;;;;;;23.43;100.00;101110.63;4920723;29;20028;-76
2021/06/06 06:20:40;;;;;;;6.63;4.43;;;;;;;22.50;100.00;101111.13;4920720;29;20042;-75
2021/06/06 06:23:26;;;;;;;7.30;4.30;;;;;;;23.92;100.00;101111.84;4920561;29;20036;-75
2021/06/06 06:26:12;;;;;;;7.07;4.35;;;;;;;23.88;100.00;101112.97;4906913;29;20024;-75
2021/06/06 06:28:58;;;;;;;7.32;4.53;;;;;;;23.94;100.00;101128.63;4920431;29;20083;-75
2021/06/06 06:31:44;;;;;;;7.82;4.43;;;;;;;24.09;100.00;101121.41;4920570;29;20354;-75
2021/06/06 06:34:31;;;;;;;6.43;4.80;;;;;;;23.31;100.00;101130.94;4920259;29;20103;-75
2021/06/06 06:37:18;;;;;;;5.57;4.97;;;;;;;22.88;100.00;101128.34;4919964;29;20353;-75
2021/06/06 06:40:07;;;;;;;6.65;4.50;;;;;;;22.73;100.00;101126.63;4920117;29;20040;-76
2021/06/06 06:42:55;;;;;;;5.90;4.65;;;;;;;23.51;100.00;101123.47;4920061;29;20131;-76
2021/06/06 06:45:43;;;;;;;7.05;5.68;;;;;;;23.31;100.00;101128.28;4920947;29;20362;-76
2021/06/06 06:48:29;;;;;;;9.32;5.40;;;;;;;22.73;100.00;101122.16;4906399;29;20425;-76
2021/06/06 06:51:16;;;;;;;6.20;5.47;;;;;;;22.70;100.00;101114.31;4921100;29;20445;-75
2021/06/06 06:54:02;;;;;;;7.63;5.00;;;;;;;22.70;100.00;101108.97;4906582;29;20032;-75
2021/06/06 06:56:49;;;;;;;6.18;5.28;;;;;;;22.82;100.00;101112.69;4920224;29;20099;-76
2021/06/06 06:59:34;;;;;;;8.27;5.75;;;;;;;22.51;100.00;101119.03;4920165;29;20024;-76
2021/06/06 07:02:20;;;;;;;7.03;5.38;;;;;;;22.72;100.00;101125.78;4919369;29;20032;-76
2021/06/06 07:05:07;;;;;;;7.63;5.22;;;;;;;22.99;100.00;101129.41;4919671;29;20042;-76
2021/06/06 07:07:53;;;;;;;7.50;5.10;;;;;;;23.71;100.00;101131.91;4919393;29;20027;-76
2021/06/06 07:10:41;;;;;;;7.20;5.30;;;;;;;23.76;100.00;101137.84;4919542;29;20377;-76
2021/06/06 07:13:27;;;;;;;9.60;5.55;;;;;;;24.61;100.00;101138.38;4919577;29;20115;-76
2021/06/06 07:16:15;;;;;;;8.15;5.47;;;;;;;24.07;100.00;101144.75;4905964;29;20032;-75
2021/06/06 07:19:00;;;;;;;6.55;5.65;;;;;;;24.46;100.00;101140.25;4919258;29;20476;-75
2021/06/06 07:21:47;;;;;;;9.23;6.75;;;;;;;24.05;100.00;101136.81;4919510;29;20374;-75
2021/06/06 07:24:32;;;;;;;8.18;6.70;;;;;;;23.95;100.00;101137.53;4905744;29;20032;-75
2021/06/06 07:27:19;;;;;;;8.55;5.95;;;;;;;24.53;100.00;101138.00;4919675;29;20054;-75
2021/06/06 07:30:15;;;;;;;9.55;6.60;;;;;;;24.55;100.00;101133.44;4905987;29;20031;-75
2021/06/06 07:33:02;;;;;;;8.85;6.18;;;;;;;24.34;100.00;101133.06;4919296;29;20031;-75
2021/06/06 07:35:47;;;;;;;7.30;5.90;;;;;;;24.54;100.00;101145.09;4918860;29;20107;-75
2021/06/06 07:38:33;;;;;;;9.93;6.20;;;;;;;25.10;100.00;101148.28;4918794;29;20463;-75
2021/06/06 07:41:21;;;;;;;6.97;6.25;;;;;;;25.07;100.00;101148.47;4905502;29;20035;-76
2021/06/06 07:44:07;;;;;;;7.85;5.88;;;;;;;25.60;100.00;101155.41;4905468;29;20047;-76
2021/06/06 07:46:53;;;;;;;9.13;5.85;;;;;;;26.27;100.00;101158.41;4919459;29;20020;-76
2021/06/06 07:49:39;;;;;;;8.93;6.20;;;;;;;25.88;100.00;101163.19;4904901;29;20095;-75
2021/06/06 07:52:25;;;;;;;8.50;6.40;;;;;;;25.75;100.00;101162.34;4905285;29;20047;-75
2021/06/06 07:55:16;;;;;;;8.45;5.60;;;;;;;25.87;100.00;101153.38;4905066;29;20024;-75
2021/06/06 07:58:02;;;;;;;9.27;6.30;;;;;;;25.92;100.00;101157.44;4919056;29;20107;-75
2021/06/06 08:00:49;;;;;;;11.40;7.20;;;;;;;24.56;100.00;101160.13;4918284;29;20039;-75
2021/06/06 08:03:34;;;;;;;8.73;7.00;;;;;;;24.45;100.00;101162.66;4918424;29;20100;-75
2021/06/06 08:06:21;;;;;;;9.90;6.88;;;;;;;24.43;100.00;101163.72;4918754;29;20028;-75
2021/06/06 08:09:08;;;;;;;8.02;6.88;;;;;;;24.73;100.00;101172.38;4918989;29;20038;-76
2021/06/06 08:11:54;;;;;;;8.02;5.72;;;;;;;25.40;100.00;101175.63;4919031;29;20441;-76
2021/06/06 08:14:39;;;;;;;8.32;5.60;;;;;;;25.80;100.00;101169.09;4919432;29;20051;-76
2021/06/06 08:17:25;;;;;;;8.13;6.30;;;;;;;26.01;100.00;101178.31;4918750;29;20438;-76
2021/06/06 08:20:16;;;;;;;7.72;5.88;;;;;;;26.31;100.00;101176.00;4919728;29;20058;-76
2021/06/06 08:23:02;;;;;;;7.95;6.00;;;;;;;27.23;94.08;101175.09;4919072;29;20141;-76
2021/06/06 08:25:49;;;;;;;10.70;6.20;;;;;;;26.45;100.00;101172.28;4904768;29;20477;-76
2021/06/06 08:28:36;;;;;;;10.75;6.40;;;;;;;26.87;96.15;101169.00;4905256;29;20040;-76
2021/06/06 08:31:26;;;;;;;9.73;6.22;;;;;;;27.29;95.04;101176.44;4918259;29;20032;-76
2021/06/06 08:34:12;;;;;;;9.32;6.63;;;;;;;27.03;96.25;101170.38;4918692;29;20035;-76
2021/06/06 08:36:58;;;;;;;14.85;6.40;;;;;;;27.01;98.90;101176.88;4918405;29;20067;-76
2021/06/06 08:39:44;;;;;;;8.82;6.30;;;;;;;27.22;98.72;101177.91;4918635;29;20028;-76
2021/06/06 08:42:31;;;;;;;10.63;6.60;;;;;;;26.98;99.36;101182.47;4917933;29;20123;-76
2021/06/06 08:45:38;;;;;;;10.13;5.88;;;;;;;26.87;95.73;101174.38;4904894;29;20032;-76
2021/06/06 08:48:27;;;;;;;8.80;5.70;;;;;;;27.51;94.31;101175.59;4918427;29;20051;-76
2021/06/06 08:51:41;;;;;;;7.70;5.40;;;;;;;27.16;90.88;101176.50;4918055;29;20130;-75
2021/06/06 08:54:41;;;;;;;8.32;5.20;;;;;;;27.20;89.20;101171.75;4918176;29;20107;-76
2021/06/06 08:57:49;;;;;;;11.68;5.15;;;;;;;27.88;87.13;101171.66;4918422;29;20039;-76
2021/06/06 09:00:39;;;;;;;9.05;5.43;;;;;;;28.11;84.15;101165.19;4921111;29;20068;-76
2021/06/06 09:03:29;;;;;;;11.77;5.47;;;;;;;28.01;83.40;101169.66;4922526;29;20039;-76
2021/06/06 09:06:23;;;;;;;10.90;5.70;;;;;;;27.58;84.43;101174.09;4932745;29;20044;-76
2021/06/06 09:09:11;;;;;;;10.68;5.50;;;;;;;27.88;82.82;101167.09;4929215;29;20108;-75
2021/06/06 09:12:04;;;;;;;6.85;5.32;;;;;;;27.61;87.51;101169.34;4929990;29;20059;-76
2021/06/06 09:14:54;;;;;;;6.10;4.88;;;;;;;28.23;80.91;101158.78;4933043;29;20024;-76
2021/06/06 09:17:41;;;;;;;6.25;5.15;;;;;;;27.87;80.14;101164.53;4922369;29;20048;-76
2021/06/06 09:20:37;;;;;;;9.93;5.38;;;;;;;26.43;86.02;101161.63;4910795;29;20032;-75
2021/06/06 09:23:29;;;;;;;9.75;5.60;;;;;;;27.04;91.53;101157.78;4917934;29;20111;-75
2021/06/06 09:26:18;;;;;;;7.13;5.13;;;;;;;27.07;83.68;101157.53;4928934;29;20048;-74
2021/06/06 09:29:24;;;;;;;11.40;5.13;;;;;;;27.93;84.98;101161.34;4927509;29;20471;-75
2021/06/06 09:32:22;;;;;;;10.57;5.65;;;;;;;28.30;82.55;101150.09;4908264;29;20091;-76
2021/06/06 09:35:24;;;;;;;8.10;6.53;;;;;;;27.88;88.39;101150.94;4908776;29;20035;-75
2021/06/06 09:38:22;;;;;;;14.27;6.60;;;;;;;27.38;98.22;101157.72;4907831;29;20020;-75
2021/06/06 09:41:16;;;;;;;9.85;6.68;;;;;;;27.09;96.74;101150.22;4921832;29;20066;-75
2021/06/06 09:44:14;;;;;;;8.65;6.32;;;;;;;27.81;95.50;101149.72;4906908;29;20221;-75
2021/06/06 09:47:12;;;;;;;10.48;6.53;;;;;;;27.67;92.70;101149.09;4922622;29;20032;-75
2021/06/06 09:50:17;;;;;;;7.65;6.38;;;;;;;27.83;88.81;101147.78;4921467;29;20064;-74
2021/06/06 09:53:17;;;;;;;11.18;7.10;;;;;;;27.44;100.00;101148.28;4921383;29;20471;-75
2021/06/06 09:56:24;;;;;;;13.73;7.43;;;;;;;27.51;100.00;101145.97;4921104;29;20120;-75
2021/06/06 09:59:22;;;;;;;10.55;6.75;;;;;;;27.45;100.00;101150.84;4907366;29;20111;-76
2021/06/06 10:02:10;;;;;;;12.55;7.47;;;;;;;27.04;100.00;101145.19;4921509;29;20047;-76
2021/06/06 10:05:04;;;;;;;11.02;7.47;;;;;;;27.52;99.45;101138.63;4920442;29;20028;-76
2021/06/06 10:08:02;;;;;;;8.80;6.97;;;;;;;27.28;100.00;101139.72;4920361;29;20020;-76
2021/06/06 10:10:53;;;;;;;20.80;8.55;;;;;;;27.30;100.00;101130.56;4920167;29;20036;-76
2021/06/06 10:13:43;;;;;;;8.73;7.82;;;;;;;26.64;100.00;101132.31;4920820;29;20024;-76
2021/06/06 10:16:37;;;;;;;13.60;7.97;;;;;;;27.03;100.00;101124.66;4920673;29;20068;-76
2021/06/06 10:19:32;;;;;;;12.02;8.27;;;;;;;27.52;100.00;101128.84;4920183;29;20088;-76
2021/06/06 10:22:22;;;;;;;9.52;7.65;;;;;;;27.01;100.00;101117.69;4920836;29;20047;-76
2021/06/06 10:25:16;;;;;;;11.60;8.10;;;;;;;26.65;100.00;101132.16;4906752;29;20484;-76
2021/06/06 10:28:06;;;;;;;13.93;8.32;;;;;;;26.94;100.00;101119.16;4920459;29;20367;-76
2021/06/06 10:31:13;;;;;;;15.93;7.75;;;;;;;27.47;100.00;101125.66;4893877;29;20472;-76
2021/06/06 10:34:20;;;;;;;13.20;8.15;;;;;;;27.59;100.00;101117.44;4908092;29;20032;-76
2021/06/06 10:37:08;;;;;;;10.23;7.18;;;;;;;27.36;99.98;101129.19;4920357;29;20032;-76
2021/06/06 10:40:00;;;;;;;10.60;7.25;;;;;;;27.48;100.00;101121.00;4921071;29;20032;-76
2021/06/06 10:42:56;;;;;;;9.85;7.20;;;;;;;27.51;100.00;101121.75;4920262;29;20390;-76
2021/06/06 10:46:07;;;;;;;9.50;7.03;;;;;;;27.24;97.58;101119.41;4920236;29;20405;-76
2021/06/06 10:49:30;;;;;;;7.68;6.75;;;;;;;27.10;100.00;101115.13;4920419;29;20036;-76
2021/06/06 10:52:32;;;;;;;15.98;6.45;;;;;;;27.20;96.90;101123.34;4907302;29;20028;-76
2021/06/06 10:55:29;;;;;;;8.85;6.70;;;;;;;27.15;99.01;101107.53;4919834;29;20020;-76
2021/06/06 10:58:19;;;;;;;10.68;6.75;;;;;;;27.41;96.82;101100.94;4906953;29;20028;-76
2021/06/06 11:01:17;;;;;;;11.13;6.45;;;;;;;27.48;96.61;101090.53;4920233;29;20118;-76
2021/06/06 11:04:13;;;;;;;8.02;6.00;;;;;;;28.19;93.36;101095.34;4907356;29;20032;-76
2021/06/06 11:07:31;;;;;;;9.90;6.32;;;;;;;27.77;92.95;101102.47;4920157;29;20031;-76
2021/06/06 11:10:18;;;;;;;10.60;5.95;;;;;;;28.07;91.35;101099.94;4919922;29;20032;-77
2021/06/06 11:13:30;;;;;;;10.68;6.32;;;;;;;28.25;86.32;101097.53;4918669;29;20055;-76
2021/06/06 11:16:16;;;;;;;10.50;7.07;;;;;;;28.41;86.30;101098.81;4919967;29;20027;-76
2021/06/06 11:19:02;;;;;;;8.50;6.70;;;;;;;29.00;85.27;101102.63;4918760;29;20032;-76
2021/06/06 11:21:52;;;;;;;9.70;5.95;;;;;;;28.49;85.53;101106.28;4918993;29;20104;-77
2021/06/06 11:24:41;;;;;;;10.45;6.35;;;;;;;28.04;88.32;101102.88;4919439;29;20480;-76
2021/06/06 11:27:36;;;;;;;7.72;5.75;;;;;;;28.13;89.78;101106.66;4919175;29;20082;-76
2021/06/06 11:30:21;;;;;;;6.75;5.85;;;;;;;28.43;84.62;101104.09;4920356;29;20043;-76
2021/06/06 11:33:14;;;;;;;8.55;6.38;;;;;;;27.90;85.78;101100.50;4918690;29;20035;-75
2021/06/06 11:36:01;;;;;;;9.13;6.45;;;;;;;28.35;84.69;101096.63;4906190;29;20472;-76
2021/06/06 11:38:50;;;;;;;9.93;5.72;;;;;;;28.22;88.82;101095.09;4920079;29;20134;-76
2021/06/06 11:41:39;;;;;;;7.22;5.60;;;;;;;28.60;86.18;101098.97;4919588;29;20081;-76
2021/06/06 11:44:36;;;;;;;10.13;6.00;;;;;;;28.40;87.11;101091.69;4919767;29;20056;-76
2021/06/06 11:47:26;;;;;;;7.97;6.13;;;;;;;28.43;86.75;101086.06;4907069;29;20028;-76
2021/06/06 11:50:27;;;;;;;9.40;6.13;;;;;;;27.73;89.69;101092.06;4919924;29;20067;-76
2021/06/06 11:53:29;;;;;;;6.65;5.95;;;;;;;27.41;91.74;101083.94;4919186;29;20028;-76
2021/06/06 11:56:25;;;;;;;6.88;6.00;;;;;;;27.86;89.34;101080.19;4919259;29;20046;-76
2021/06/06 11:59:42;;;;;;;9.07;6.55;;;;;;;27.20;92.98;101091.03;4918985;29;20054;-76
2021/06/06 12:02:31;;;;;;;8.82;6.38;;;;;;;27.20;92.07;101083.84;4919283;29;20362;-75
2021/06/06 12:05:30;;;;;;;7.50;6.30;;;;;;;27.34;92.47;101074.66;4905625;29;20055;-75
2021/06/06 12:08:16;;;;;;;8.75;6.28;;;;;;;27.71;91.39;101077.88;4905361;29;20043;-75
2021/06/06 12:11:27;;;;;;;7.72;6.10;;;;;;;27.14;96.58;101075.38;4905697;29;20072;-75
2021/06/06 12:14:20;;;;;;;8.70;6.35;;;;;;;27.68;91.00;101060.13;4919543;29;20425;-75
2021/06/06 12:17:19;;;;;;;6.82;6.13;;;;;;;27.35;95.44;101069.16;4906330;29;20445;-75
2021/06/06 12:20:12;;;;;;;11.45;6.35;;;;;;;27.64;91.36;101066.75;4918912;29;20096;-76
2021/06/06 12:23:08;;;;;;;7.97;6.47;;;;;;;26.42;97.26;101063.19;4905282;29;20374;-76
2021/06/06 12:26:09;;;;;;;6.47;5.80;;;;;;;27.05;98.26;101058.13;4918314;29;20028;-76
2021/06/06 12:28:57;;;;;;;6.93;5.88;;;;;;;27.31;95.84;101065.00;4918853;29;20035;-76
2021/06/06 12:31:45;;;;;;;7.65;6.60;;;;;;;27.29;94.39;101056.19;4918096;29;20028;-76
2021/06/06 12:34:31;;;;;;;8.25;6.18;;;;;;;27.25;96.43;101059.25;4918608;29;20111;-75
2021/06/06 12:37:31;;;;;;;7.93;5.88;;;;;;;27.34;96.39;101056.69;4917502;29;20047;-75
2021/06/06 12:40:19;;;;;;;7.80;6.53;;;;;;;26.79;98.10;101053.13;4919066;29;20366;-75
2021/06/06 12:43:07;;;;;;;10.25;6.20;;;;;;;27.20;97.70;101043.47;4918366;29;20059;-75
2021/06/06 12:46:00;;;;;;;8.10;6.30;;;;;;;27.41;96.85;101047.09;4891953;29;20060;-75
2021/06/06 12:49:05;;;;;;;8.02;6.30;;;;;;;27.27;97.23;101044.69;4918560;29;20098;-75
2021/06/06 12:51:51;;;;;;;8.43;6.47;;;;;;;27.83;94.23;101036.47;4904682;29;20036;-76
2021/06/06 12:54:38;;;;;;;8.18;6.32;;;;;;;27.78;95.04;101035.97;4918430;29;20050;-75
2021/06/06 12:57:31;;;;;;;9.18;5.88;;;;;;;27.36;97.72;101033.16;4918235;29;20033;-75
2021/06/06 13:00:37;;;;;;;10.57;5.97;;;;;;;27.47;98.20;101026.06;4918557;29;20021;-75
2021/06/06 13:03:26;;;;;;;6.70;5.88;;;;;;;27.56;98.89;101022.59;4917957;29;20043;-76
2021/06/06 13:06:14;;;;;;;6.85;5.82;;;;;;;27.15;100.00;101024.13;4905660;29;20039;-75